This is the latest recevied weather packets stored in our database for station/object W4TBD-13. If no packets are shown the sender has not sent any weather packets the latest 10 day(s).
| Time | Temp. | Humidity | Pressure | Rain* | Wind** | Luminosity | Snow |
|---|---|---|---|---|---|---|---|
| 1777938306 | 22.22° C | 44% | 1002.3 hPa | 0 mm | - | 0 W/m² | - |
| 1777938007 | 22.78° C | 43% | 1002.3 hPa | 0 mm | - | 0 W/m² | - |
| 1777932006 | 24.44° C | 35% | 1002 hPa | 0 mm | - | 0 W/m² | - |
| 1777931706 | 24.44° C | 35% | 1002.1 hPa | 0 mm | - | 0 W/m² | - |
| 1777931406 | 24.44° C | 37% | 1002 hPa | 0 mm | - | 0 W/m² | - |
| 1777930806 | 24.44° C | 35% | 1002 hPa | 0 mm | - | 0 W/m² | - |
| 1777928706 | 24.44° C | 35% | 1001.9 hPa | 0 mm | - | 0 W/m² | - |
| 1777927206 | 25° C | 33% | 1002 hPa | 0 mm | - | 0 W/m² | - |
| 1777925106 | 25° C | 34% | 1002.4 hPa | 0 mm | - | 0 W/m² | - |
| 1777924505 | 25.56° C | 35% | 1002.5 hPa | 0 mm | - | 0 W/m² | - |
| 1777924207 | 25.56° C | 35% | 1002.4 hPa | 0 mm | - | 0 W/m² | - |
| 1777917606 | 23.33° C | 40% | 1003.8 hPa | 0 mm | - | 149 W/m² | - |
| 1777912206 | 22.78° C | 37% | 1005.1 hPa | 0 mm | - | 576 W/m² | - |
| 1777911006 | 21.11° C | 41% | 1005 hPa | 0 mm | - | 644 W/m² | - |
| 1777909505 | 22.22° C | 38% | 1005.3 hPa | 0 mm | - | 644 W/m² | - |
| 1777906205 | 20° C | 43% | 1005.6 hPa | 0 mm | - | 695 W/m² | - |
| 1777903805 | 18.33° C | 49% | 1006 hPa | 0 mm | - | 701 W/m² | - |
| 1777901705 | 16.11° C | 51% | 1006.2 hPa | 0 mm | - | 528 W/m² | - |
| 1777901105 | 15° C | 55% | 1006.2 hPa | 0 mm | - | 479 W/m² | - |
| 1777900506 | 15° C | 58% | 1006.2 hPa | 0 mm | - | 431 W/m² | - |
| 1777899305 | 14.44° C | 56% | 1006.5 hPa | 0 mm | - | 317 W/m² | - |
| 1777899006 | 14.44° C | 58% | 1006.4 hPa | 0 mm | - | 292 W/m² | - |
| 1777898405 | 13.33° C | 61% | 1006.4 hPa | 0 mm | - | 270 W/m² | - |
| 1777895406 | 10° C | 73% | 1006.7 hPa | 0 mm | - | 32 W/m² | - |
| 1777895106 | 9.44° C | 74% | 1006.6 hPa | 0 mm | - | 31 W/m² | - |
* Rain latest hour (hover to see other rain measurements)
** Current wind speed in m/s (hover to see current wind gust speed)